ROMMA est une association bénévole à but non lucratif. Votre soutien est indispensable : ADHERER à ROMMA ou FAIRE un DON

Le Versoud - (38, Isère)

Vallée du Grésivaudan (220 m)   Longitude: 05° 51' 44" E   Latitude: 45° 13' 06" N Station partenaire n°6
 

Détail journalier du     <<     >>

Température Precipitation Humidité Pression Vent Dir Rafale Dir. rafale Ensol.
Heure (°C) (mm) (%) (hPa) (km/h) (km/h) (min)
01:00 17.6084101100---0
02:00 17.8085101200---0
03:00 18.20841013010ENE0
04:00 18.2084101302NE0
05:00 17.9084101300---0
06:00 17.7085101400---0
07:00 17.8083101400---0
08:00 17.708510161---19SSO0
09:00 16.40941016010SE0
10:00 18.3091101500---10
11:00 20.1080101502ESE15
12:00 21.6074101502ESE30
13:00 22.9064101405S15
14:00 24.30641013013NNO55
15:00 24.80621011010NE55
16:00 18.907610143---39OSO5
17:00 17.207910188SSE45SSE0
18:00 15.809110194SE45SSE0
19:00 16.108910181---18NE0
20:00 16.8085101800---35
21:00 15.8090101800---10
22:00 14.7093101900---0
23:00 13.9094102000---0
minuit 13.2094102000---0

Graphique du 15-06-2019

 

Serveur OMMA